sensor_id;sensor_type;location;lat;lon;timestamp;P1;durP1;ratioP1;P2;durP2;ratioP2
27847;SDS011;15212;48.830;8.730;2023-05-08T00:00:46;27.50;;;18.00;;
27847;SDS011;15212;48.830;8.730;2023-05-08T00:03:14;23.75;;;16.90;;
27847;SDS011;15212;48.830;8.730;2023-05-08T00:05:43;25.25;;;16.15;;
27847;SDS011;15212;48.830;8.730;2023-05-08T00:08:11;24.92;;;16.15;;
27847;SDS011;15212;48.830;8.730;2023-05-08T00:10:40;22.50;;;14.73;;
27847;SDS011;15212;48.830;8.730;2023-05-08T00:13:08;21.75;;;14.75;;
27847;SDS011;15212;48.830;8.730;2023-05-08T00:15:36;20.68;;;13.15;;
27847;SDS011;15212;48.830;8.730;2023-05-08T00:18:05;18.23;;;12.82;;
27847;SDS011;15212;48.830;8.730;2023-05-08T00:20:33;16.97;;;11.57;;
27847;SDS011;15212;48.830;8.730;2023-05-08T00:23:02;16.50;;;10.90;;
27847;SDS011;15212;48.830;8.730;2023-05-08T00:25:31;17.00;;;10.95;;
27847;SDS011;15212;48.830;8.730;2023-05-08T00:27:59;17.62;;;10.95;;
27847;SDS011;15212;48.830;8.730;2023-05-08T00:30:28;15.40;;;10.65;;
27847;SDS011;15212;48.830;8.730;2023-05-08T00:32:56;17.27;;;11.03;;
27847;SDS011;15212;48.830;8.730;2023-05-08T00:35:24;15.18;;;10.90;;
27847;SDS011;15212;48.830;8.730;2023-05-08T00:37:53;15.30;;;9.98;;
27847;SDS011;15212;48.830;8.730;2023-05-08T00:40:21;14.73;;;10.03;;
27847;SDS011;15212;48.830;8.730;2023-05-08T00:42:50;14.93;;;10.85;;
27847;SDS011;15212;48.830;8.730;2023-05-08T00:45:18;15.05;;;10.43;;
27847;SDS011;15212;48.830;8.730;2023-05-08T00:47:47;13.43;;;10.05;;
27847;SDS011;15212;48.830;8.730;2023-05-08T00:50:17;14.33;;;9.68;;
27847;SDS011;15212;48.830;8.730;2023-05-08T00:52:45;15.10;;;10.23;;
27847;SDS011;15212;48.830;8.730;2023-05-08T00:55:14;13.18;;;9.08;;
27847;SDS011;15212;48.830;8.730;2023-05-08T00:57:42;16.32;;;10.68;;
27847;SDS011;15212;48.830;8.730;2023-05-08T01:00:15;14.33;;;9.55;;
27847;SDS011;15212;48.830;8.730;2023-05-08T01:02:44;12.10;;;8.70;;
27847;SDS011;15212;48.830;8.730;2023-05-08T01:05:13;14.78;;;9.45;;
27847;SDS011;15212;48.830;8.730;2023-05-08T01:07:42;14.50;;;9.23;;
27847;SDS011;15212;48.830;8.730;2023-05-08T01:10:11;14.35;;;9.60;;
27847;SDS011;15212;48.830;8.730;2023-05-08T01:12:52;18.27;;;10.32;;
27847;SDS011;15212;48.830;8.730;2023-05-08T01:15:34;12.65;;;9.15;;
27847;SDS011;15212;48.830;8.730;2023-05-08T01:20:46;17.37;;;9.40;;
27847;SDS011;15212;48.830;8.730;2023-05-08T01:26:48;13.53;;;9.13;;
27847;SDS011;15212;48.830;8.730;2023-05-08T01:29:41;14.83;;;8.95;;
27847;SDS011;15212;48.830;8.730;2023-05-08T01:32:41;16.23;;;8.93;;
27847;SDS011;15212;48.830;8.730;2023-05-08T01:35:20;15.18;;;9.18;;
27847;SDS011;15212;48.830;8.730;2023-05-08T01:37:56;14.38;;;9.15;;
27847;SDS011;15212;48.830;8.730;2023-05-08T01:40:39;14.03;;;10.35;;
27847;SDS011;15212;48.830;8.730;2023-05-08T01:43:44;15.25;;;9.60;;
27847;SDS011;15212;48.830;8.730;2023-05-08T01:46:25;14.07;;;9.68;;
27847;SDS011;15212;48.830;8.730;2023-05-08T01:51:47;16.05;;;10.00;;
27847;SDS011;15212;48.830;8.730;2023-05-08T01:54:15;15.65;;;10.25;;
27847;SDS011;15212;48.830;8.730;2023-05-08T01:56:47;14.00;;;9.28;;
27847;SDS011;15212;48.830;8.730;2023-05-08T01:59:20;11.53;;;8.75;;
27847;SDS011;15212;48.830;8.730;2023-05-08T02:01:51;12.45;;;8.50;;
27847;SDS011;15212;48.830;8.730;2023-05-08T02:04:21;12.58;;;8.45;;
27847;SDS011;15212;48.830;8.730;2023-05-08T02:06:51;13.65;;;9.15;;
27847;SDS011;15212;48.830;8.730;2023-05-08T02:09:22;11.57;;;8.10;;
27847;SDS011;15212;48.830;8.730;2023-05-08T02:11:52;11.30;;;8.15;;
27847;SDS011;15212;48.830;8.730;2023-05-08T02:14:21;12.40;;;8.23;;
27847;SDS011;15212;48.830;8.730;2023-05-08T02:16:51;11.75;;;8.45;;
27847;SDS011;15212;48.830;8.730;2023-05-08T02:19:22;11.97;;;8.63;;
27847;SDS011;15212;48.830;8.730;2023-05-08T02:21:54;11.43;;;8.18;;
27847;SDS011;15212;48.830;8.730;2023-05-08T02:24:24;10.55;;;7.83;;
27847;SDS011;15212;48.830;8.730;2023-05-08T02:26:53;11.12;;;7.67;;
27847;SDS011;15212;48.830;8.730;2023-05-08T02:29:23;14.05;;;8.20;;
27847;SDS011;15212;48.830;8.730;2023-05-08T02:31:52;10.98;;;7.20;;
27847;SDS011;15212;48.830;8.730;2023-05-08T02:34:22;10.98;;;7.55;;
27847;SDS011;15212;48.830;8.730;2023-05-08T02:36:51;9.20;;;7.17;;
27847;SDS011;15212;48.830;8.730;2023-05-08T02:39:21;10.65;;;8.03;;
27847;SDS011;15212;48.830;8.730;2023-05-08T02:41:52;10.98;;;8.13;;
27847;SDS011;15212;48.830;8.730;2023-05-08T02:44:21;11.38;;;7.20;;
27847;SDS011;15212;48.830;8.730;2023-05-08T02:46:56;11.73;;;7.40;;
27847;SDS011;15212;48.830;8.730;2023-05-08T02:49:45;12.28;;;7.50;;
27847;SDS011;15212;48.830;8.730;2023-05-08T02:52:28;10.60;;;7.50;;
27847;SDS011;15212;48.830;8.730;2023-05-08T02:54:59;11.50;;;7.20;;
27847;SDS011;15212;48.830;8.730;2023-05-08T02:58:08;11.93;;;7.92;;
27847;SDS011;15212;48.830;8.730;2023-05-08T03:03:38;10.35;;;8.10;;
27847;SDS011;15212;48.830;8.730;2023-05-08T03:06:12;11.22;;;8.43;;
27847;SDS011;15212;48.830;8.730;2023-05-08T03:08:44;10.98;;;7.70;;
27847;SDS011;15212;48.830;8.730;2023-05-08T03:11:15;10.45;;;7.65;;
27847;SDS011;15212;48.830;8.730;2023-05-08T03:13:47;11.60;;;8.05;;
27847;SDS011;15212;48.830;8.730;2023-05-08T03:16:19;13.20;;;8.48;;
27847;SDS011;15212;48.830;8.730;2023-05-08T03:18:51;13.43;;;8.40;;
27847;SDS011;15212;48.830;8.730;2023-05-08T03:23:56;13.78;;;8.15;;
27847;SDS011;15212;48.830;8.730;2023-05-08T03:26:27;11.50;;;8.38;;
27847;SDS011;15212;48.830;8.730;2023-05-08T03:28:56;10.90;;;8.10;;
27847;SDS011;15212;48.830;8.730;2023-05-08T03:31:25;9.85;;;6.72;;
27847;SDS011;15212;48.830;8.730;2023-05-08T03:33:54;12.20;;;7.62;;
27847;SDS011;15212;48.830;8.730;2023-05-08T03:36:24;8.88;;;7.78;;
27847;SDS011;15212;48.830;8.730;2023-05-08T03:38:53;12.30;;;7.95;;
27847;SDS011;15212;48.830;8.730;2023-05-08T03:41:22;14.65;;;7.83;;
27847;SDS011;15212;48.830;8.730;2023-05-08T03:43:52;11.53;;;8.08;;
27847;SDS011;15212;48.830;8.730;2023-05-08T03:46:22;11.80;;;9.08;;
27847;SDS011;15212;48.830;8.730;2023-05-08T03:48:52;10.75;;;8.78;;
27847;SDS011;15212;48.830;8.730;2023-05-08T03:51:21;13.90;;;9.40;;
27847;SDS011;15212;48.830;8.730;2023-05-08T03:53:50;15.05;;;10.55;;
27847;SDS011;15212;48.830;8.730;2023-05-08T03:56:18;16.62;;;11.00;;
27847;SDS011;15212;48.830;8.730;2023-05-08T03:58:49;13.98;;;10.58;;
27847;SDS011;15212;48.830;8.730;2023-05-08T04:01:37;13.48;;;10.20;;
27847;SDS011;15212;48.830;8.730;2023-05-08T04:04:23;15.40;;;10.68;;
27847;SDS011;15212;48.830;8.730;2023-05-08T04:06:49;16.35;;;11.35;;
27847;SDS011;15212;48.830;8.730;2023-05-08T04:09:50;22.95;;;13.75;;
27847;SDS011;15212;48.830;8.730;2023-05-08T04:12:43;21.65;;;13.75;;
27847;SDS011;15212;48.830;8.730;2023-05-08T04:15:31;20.50;;;13.10;;
27847;SDS011;15212;48.830;8.730;2023-05-08T04:18:19;25.88;;;15.20;;
27847;SDS011;15212;48.830;8.730;2023-05-08T04:20:54;32.78;;;14.68;;
27847;SDS011;15212;48.830;8.730;2023-05-08T04:23:24;21.97;;;14.40;;
27847;SDS011;15212;48.830;8.730;2023-05-08T04:25:54;32.15;;;17.12;;
27847;SDS011;15212;48.830;8.730;2023-05-08T04:28:24;27.95;;;16.42;;
27847;SDS011;15212;48.830;8.730;2023-05-08T04:30:54;26.68;;;17.50;;
27847;SDS011;15212;48.830;8.730;2023-05-08T04:33:23;30.00;;;16.48;;
27847;SDS011;15212;48.830;8.730;2023-05-08T04:35:52;38.08;;;14.13;;
27847;SDS011;15212;48.830;8.730;2023-05-08T04:38:21;41.50;;;15.95;;
27847;SDS011;15212;48.830;8.730;2023-05-08T04:40:49;54.73;;;16.30;;
27847;SDS011;15212;48.830;8.730;2023-05-08T04:43:18;54.45;;;16.82;;
27847;SDS011;15212;48.830;8.730;2023-05-08T04:45:46;60.25;;;15.18;;
27847;SDS011;15212;48.830;8.730;2023-05-08T04:48:15;81.37;;;15.35;;
27847;SDS011;15212;48.830;8.730;2023-05-08T04:50:43;56.88;;;17.45;;
27847;SDS011;15212;48.830;8.730;2023-05-08T04:53:12;28.67;;;15.63;;
27847;SDS011;15212;48.830;8.730;2023-05-08T04:55:40;28.65;;;15.88;;
27847;SDS011;15212;48.830;8.730;2023-05-08T04:58:12;40.45;;;16.52;;
27847;SDS011;15212;48.830;8.730;2023-05-08T05:00:40;39.78;;;16.85;;
27847;SDS011;15212;48.830;8.730;2023-05-08T05:03:08;33.92;;;18.52;;
27847;SDS011;15212;48.830;8.730;2023-05-08T05:05:37;30.70;;;16.30;;
27847;SDS011;15212;48.830;8.730;2023-05-08T05:08:05;35.83;;;17.27;;
27847;SDS011;15212;48.830;8.730;2023-05-08T05:10:33;34.05;;;17.17;;
27847;SDS011;15212;48.830;8.730;2023-05-08T05:13:04;38.58;;;18.73;;
27847;SDS011;15212;48.830;8.730;2023-05-08T05:15:32;40.38;;;18.15;;
27847;SDS011;15212;48.830;8.730;2023-05-08T05:18:01;64.55;;;18.07;;
27847;SDS011;15212;48.830;8.730;2023-05-08T05:20:29;36.10;;;17.32;;
27847;SDS011;15212;48.830;8.730;2023-05-08T05:22:58;29.15;;;16.30;;
27847;SDS011;15212;48.830;8.730;2023-05-08T05:25:26;28.50;;;17.15;;
27847;SDS011;15212;48.830;8.730;2023-05-08T05:27:55;29.27;;;16.77;;
27847;SDS011;15212;48.830;8.730;2023-05-08T05:30:23;37.03;;;18.05;;
27847;SDS011;15212;48.830;8.730;2023-05-08T05:32:52;27.55;;;16.85;;
27847;SDS011;15212;48.830;8.730;2023-05-08T05:35:20;27.87;;;15.83;;
27847;SDS011;15212;48.830;8.730;2023-05-08T05:37:48;38.95;;;15.95;;
27847;SDS011;15212;48.830;8.730;2023-05-08T05:40:17;30.90;;;14.80;;
27847;SDS011;15212;48.830;8.730;2023-05-08T05:42:48;22.42;;;15.15;;
27847;SDS011;15212;48.830;8.730;2023-05-08T05:45:17;32.67;;;15.70;;
27847;SDS011;15212;48.830;8.730;2023-05-08T05:47:46;21.65;;;14.30;;
27847;SDS011;15212;48.830;8.730;2023-05-08T05:50:15;22.32;;;14.85;;
27847;SDS011;15212;48.830;8.730;2023-05-08T05:52:44;21.73;;;14.23;;
27847;SDS011;15212;48.830;8.730;2023-05-08T05:55:12;23.12;;;15.53;;
27847;SDS011;15212;48.830;8.730;2023-05-08T05:57:41;22.25;;;15.18;;
27847;SDS011;15212;48.830;8.730;2023-05-08T06:00:09;21.90;;;14.60;;
27847;SDS011;15212;48.830;8.730;2023-05-08T06:02:38;29.98;;;16.05;;
27847;SDS011;15212;48.830;8.730;2023-05-08T06:05:10;32.10;;;16.48;;
27847;SDS011;15212;48.830;8.730;2023-05-08T06:07:38;28.60;;;17.52;;
27847;SDS011;15212;48.830;8.730;2023-05-08T06:10:07;29.18;;;18.23;;
27847;SDS011;15212;48.830;8.730;2023-05-08T06:12:35;28.50;;;18.55;;
27847;SDS011;15212;48.830;8.730;2023-05-08T06:15:04;28.50;;;18.87;;
27847;SDS011;15212;48.830;8.730;2023-05-08T06:17:34;26.57;;;16.77;;
27847;SDS011;15212;48.830;8.730;2023-05-08T06:20:02;28.55;;;18.37;;
27847;SDS011;15212;48.830;8.730;2023-05-08T06:22:32;29.82;;;18.57;;
27847;SDS011;15212;48.830;8.730;2023-05-08T06:25:02;31.57;;;19.15;;
27847;SDS011;15212;48.830;8.730;2023-05-08T06:27:31;29.00;;;18.60;;
27847;SDS011;15212;48.830;8.730;2023-05-08T06:30:00;34.15;;;19.35;;
27847;SDS011;15212;48.830;8.730;2023-05-08T06:32:31;30.62;;;19.67;;
27847;SDS011;15212;48.830;8.730;2023-05-08T06:35:00;32.45;;;18.80;;
27847;SDS011;15212;48.830;8.730;2023-05-08T06:37:28;33.88;;;20.52;;
27847;SDS011;15212;48.830;8.730;2023-05-08T06:39:57;28.57;;;19.20;;
27847;SDS011;15212;48.830;8.730;2023-05-08T06:42:25;30.82;;;19.12;;
27847;SDS011;15212;48.830;8.730;2023-05-08T06:44:54;30.37;;;19.15;;
27847;SDS011;15212;48.830;8.730;2023-05-08T06:47:22;38.60;;;21.97;;
27847;SDS011;15212;48.830;8.730;2023-05-08T06:49:51;32.35;;;19.62;;
27847;SDS011;15212;48.830;8.730;2023-05-08T06:52:19;36.17;;;21.27;;
27847;SDS011;15212;48.830;8.730;2023-05-08T06:54:49;30.62;;;19.98;;
27847;SDS011;15212;48.830;8.730;2023-05-08T06:57:18;36.25;;;20.32;;
27847;SDS011;15212;48.830;8.730;2023-05-08T06:59:46;36.15;;;21.17;;
27847;SDS011;15212;48.830;8.730;2023-05-08T07:02:14;31.33;;;19.30;;
27847;SDS011;15212;48.830;8.730;2023-05-08T07:04:43;28.77;;;17.87;;
27847;SDS011;15212;48.830;8.730;2023-05-08T07:07:12;34.10;;;19.55;;
27847;SDS011;15212;48.830;8.730;2023-05-08T07:09:40;36.90;;;21.48;;
27847;SDS011;15212;48.830;8.730;2023-05-08T07:12:09;38.05;;;21.12;;
27847;SDS011;15212;48.830;8.730;2023-05-08T07:14:37;37.23;;;21.07;;
27847;SDS011;15212;48.830;8.730;2023-05-08T07:17:05;40.63;;;22.35;;
27847;SDS011;15212;48.830;8.730;2023-05-08T07:19:37;33.73;;;20.57;;
27847;SDS011;15212;48.830;8.730;2023-05-08T07:22:06;37.03;;;19.92;;
27847;SDS011;15212;48.830;8.730;2023-05-08T07:24:35;29.18;;;17.82;;
27847;SDS011;15212;48.830;8.730;2023-05-08T07:27:03;29.72;;;17.30;;
27847;SDS011;15212;48.830;8.730;2023-05-08T07:29:33;26.70;;;17.07;;
27847;SDS011;15212;48.830;8.730;2023-05-08T07:32:05;24.10;;;15.72;;
27847;SDS011;15212;48.830;8.730;2023-05-08T07:34:34;23.73;;;15.40;;
27847;SDS011;15212;48.830;8.730;2023-05-08T07:37:02;26.60;;;15.63;;
27847;SDS011;15212;48.830;8.730;2023-05-08T07:39:30;25.60;;;16.25;;
27847;SDS011;15212;48.830;8.730;2023-05-08T07:41:59;23.50;;;15.63;;
27847;SDS011;15212;48.830;8.730;2023-05-08T07:44:27;26.20;;;16.85;;
27847;SDS011;15212;48.830;8.730;2023-05-08T07:47:00;30.35;;;18.02;;
27847;SDS011;15212;48.830;8.730;2023-05-08T07:49:29;27.22;;;17.15;;
27847;SDS011;15212;48.830;8.730;2023-05-08T07:51:57;28.47;;;17.17;;
27847;SDS011;15212;48.830;8.730;2023-05-08T07:54:25;30.02;;;17.90;;
27847;SDS011;15212;48.830;8.730;2023-05-08T07:56:54;31.55;;;19.52;;
27847;SDS011;15212;48.830;8.730;2023-05-08T07:59:22;30.75;;;19.17;;
27847;SDS011;15212;48.830;8.730;2023-05-08T08:01:51;36.60;;;22.15;;
27847;SDS011;15212;48.830;8.730;2023-05-08T08:04:19;35.25;;;21.48;;
27847;SDS011;15212;48.830;8.730;2023-05-08T08:06:48;34.18;;;21.68;;
27847;SDS011;15212;48.830;8.730;2023-05-08T08:09:16;38.58;;;23.52;;
27847;SDS011;15212;48.830;8.730;2023-05-08T08:11:45;40.05;;;23.27;;
27847;SDS011;15212;48.830;8.730;2023-05-08T08:14:13;41.20;;;23.60;;
27847;SDS011;15212;48.830;8.730;2023-05-08T08:16:41;34.08;;;21.42;;
27847;SDS011;15212;48.830;8.730;2023-05-08T08:19:10;33.90;;;21.00;;
27847;SDS011;15212;48.830;8.730;2023-05-08T08:21:41;38.13;;;21.48;;
27847;SDS011;15212;48.830;8.730;2023-05-08T08:24:11;31.35;;;19.80;;
27847;SDS011;15212;48.830;8.730;2023-05-08T08:26:39;33.48;;;20.57;;
27847;SDS011;15212;48.830;8.730;2023-05-08T08:29:07;32.80;;;20.37;;
27847;SDS011;15212;48.830;8.730;2023-05-08T08:31:36;34.48;;;20.27;;
27847;SDS011;15212;48.830;8.730;2023-05-08T08:34:04;34.48;;;20.65;;
27847;SDS011;15212;48.830;8.730;2023-05-08T08:36:33;39.13;;;22.17;;
27847;SDS011;15212;48.830;8.730;2023-05-08T08:39:01;35.95;;;20.75;;
27847;SDS011;15212;48.830;8.730;2023-05-08T08:41:30;39.13;;;22.90;;
27847;SDS011;15212;48.830;8.730;2023-05-08T08:43:59;32.98;;;19.25;;
27847;SDS011;15212;48.830;8.730;2023-05-08T08:46:27;31.93;;;19.20;;
27847;SDS011;15212;48.830;8.730;2023-05-08T08:49:01;31.85;;;19.23;;
27847;SDS011;15212;48.830;8.730;2023-05-08T08:51:31;30.10;;;18.60;;
27847;SDS011;15212;48.830;8.730;2023-05-08T08:54:08;32.33;;;19.52;;
27847;SDS011;15212;48.830;8.730;2023-05-08T08:56:39;28.35;;;17.75;;
27847;SDS011;15212;48.830;8.730;2023-05-08T08:59:10;28.38;;;17.35;;
27847;SDS011;15212;48.830;8.730;2023-05-08T09:01:39;29.63;;;16.87;;
27847;SDS011;15212;48.830;8.730;2023-05-08T09:04:10;31.90;;;17.48;;
27847;SDS011;15212;48.830;8.730;2023-05-08T09:06:38;26.25;;;17.07;;
27847;SDS011;15212;48.830;8.730;2023-05-08T09:09:07;26.40;;;16.73;;
27847;SDS011;15212;48.830;8.730;2023-05-08T09:11:35;26.10;;;15.83;;
27847;SDS011;15212;48.830;8.730;2023-05-08T09:14:06;23.07;;;15.18;;
27847;SDS011;15212;48.830;8.730;2023-05-08T09:16:34;30.12;;;16.75;;
27847;SDS011;15212;48.830;8.730;2023-05-08T09:19:03;28.47;;;16.37;;
27847;SDS011;15212;48.830;8.730;2023-05-08T09:21:31;29.02;;;17.17;;
27847;SDS011;15212;48.830;8.730;2023-05-08T09:24:01;25.50;;;16.27;;
27847;SDS011;15212;48.830;8.730;2023-05-08T09:26:35;24.20;;;15.13;;
27847;SDS011;15212;48.830;8.730;2023-05-08T09:29:11;22.43;;;14.53;;
27847;SDS011;15212;48.830;8.730;2023-05-08T09:31:45;25.15;;;16.25;;
27847;SDS011;15212;48.830;8.730;2023-05-08T09:39:38;21.48;;;14.23;;
27847;SDS011;15212;48.830;8.730;2023-05-08T09:42:08;22.17;;;13.85;;
27847;SDS011;15212;48.830;8.730;2023-05-08T09:44:43;23.55;;;14.10;;
27847;SDS011;15212;48.830;8.730;2023-05-08T09:47:17;18.67;;;11.80;;
27847;SDS011;15212;48.830;8.730;2023-05-08T09:49:57;21.33;;;12.40;;
27847;SDS011;15212;48.830;8.730;2023-05-08T09:52:32;17.87;;;11.68;;
27847;SDS011;15212;48.830;8.730;2023-05-08T09:55:03;18.35;;;12.00;;
27847;SDS011;15212;48.830;8.730;2023-05-08T09:57:36;16.57;;;10.60;;
27847;SDS011;15212;48.830;8.730;2023-05-08T10:00:11;18.75;;;12.33;;
27847;SDS011;15212;48.830;8.730;2023-05-08T10:02:40;18.30;;;11.75;;
27847;SDS011;15212;48.830;8.730;2023-05-08T10:05:22;19.27;;;12.73;;
27847;SDS011;15212;48.830;8.730;2023-05-08T10:07:58;16.42;;;12.10;;
27847;SDS011;15212;48.830;8.730;2023-05-08T10:10:45;16.70;;;11.75;;
27847;SDS011;15212;48.830;8.730;2023-05-08T10:13:14;18.23;;;12.53;;
27847;SDS011;15212;48.830;8.730;2023-05-08T10:15:43;19.40;;;13.38;;
27847;SDS011;15212;48.830;8.730;2023-05-08T10:18:11;18.98;;;12.47;;
27847;SDS011;15212;48.830;8.730;2023-05-08T10:20:43;16.32;;;11.83;;
27847;SDS011;15212;48.830;8.730;2023-05-08T10:23:15;19.02;;;12.95;;
27847;SDS011;15212;48.830;8.730;2023-05-08T10:25:44;18.95;;;13.05;;
27847;SDS011;15212;48.830;8.730;2023-05-08T10:28:21;18.57;;;12.20;;
27847;SDS011;15212;48.830;8.730;2023-05-08T10:31:07;15.68;;;11.80;;
27847;SDS011;15212;48.830;8.730;2023-05-08T10:33:39;18.10;;;12.05;;
27847;SDS011;15212;48.830;8.730;2023-05-08T10:36:11;16.90;;;12.07;;
27847;SDS011;15212;48.830;8.730;2023-05-08T10:38:40;20.17;;;12.53;;
27847;SDS011;15212;48.830;8.730;2023-05-08T10:41:09;16.85;;;12.63;;
27847;SDS011;15212;48.830;8.730;2023-05-08T10:43:40;16.20;;;11.33;;
27847;SDS011;15212;48.830;8.730;2023-05-08T10:46:18;17.35;;;12.37;;
27847;SDS011;15212;48.830;8.730;2023-05-08T10:54:11;14.90;;;10.50;;
27847;SDS011;15212;48.830;8.730;2023-05-08T10:56:47;13.20;;;9.88;;
27847;SDS011;15212;48.830;8.730;2023-05-08T10:59:19;15.10;;;10.58;;
27847;SDS011;15212;48.830;8.730;2023-05-08T11:01:48;14.70;;;11.15;;
27847;SDS011;15212;48.830;8.730;2023-05-08T11:04:20;13.30;;;9.55;;
27847;SDS011;15212;48.830;8.730;2023-05-08T11:06:50;14.83;;;10.10;;
27847;SDS011;15212;48.830;8.730;2023-05-08T11:09:21;15.28;;;9.85;;
27847;SDS011;15212;48.830;8.730;2023-05-08T11:12:00;15.48;;;10.70;;
27847;SDS011;15212;48.830;8.730;2023-05-08T11:15:02;13.15;;;9.50;;
27847;SDS011;15212;48.830;8.730;2023-05-08T11:17:34;11.93;;;8.55;;
27847;SDS011;15212;48.830;8.730;2023-05-08T11:20:03;11.05;;;8.35;;
27847;SDS011;15212;48.830;8.730;2023-05-08T11:22:33;11.20;;;8.48;;
27847;SDS011;15212;48.830;8.730;2023-05-08T11:25:12;10.72;;;7.92;;
27847;SDS011;15212;48.830;8.730;2023-05-08T11:27:38;9.80;;;7.17;;
27847;SDS011;15212;48.830;8.730;2023-05-08T11:30:22;8.30;;;6.60;;
27847;SDS011;15212;48.830;8.730;2023-05-08T11:38:35;8.38;;;6.47;;
27847;SDS011;15212;48.830;8.730;2023-05-08T11:41:05;7.65;;;5.70;;
27847;SDS011;15212;48.830;8.730;2023-05-08T11:46:38;9.98;;;5.65;;
27847;SDS011;15212;48.830;8.730;2023-05-08T11:49:10;6.17;;;4.87;;
27847;SDS011;15212;48.830;8.730;2023-05-08T11:51:44;7.12;;;5.05;;
27847;SDS011;15212;48.830;8.730;2023-05-08T11:54:16;9.50;;;5.28;;
27847;SDS011;15212;48.830;8.730;2023-05-08T11:56:46;5.95;;;4.40;;
27847;SDS011;15212;48.830;8.730;2023-05-08T11:59:17;6.60;;;4.45;;
27847;SDS011;15212;48.830;8.730;2023-05-08T12:01:47;7.60;;;3.85;;
27847;SDS011;15212;48.830;8.730;2023-05-08T12:04:16;4.95;;;3.75;;
27847;SDS011;15212;48.830;8.730;2023-05-08T12:06:45;4.17;;;3.50;;
27847;SDS011;15212;48.830;8.730;2023-05-08T12:09:14;8.10;;;3.52;;
27847;SDS011;15212;48.830;8.730;2023-05-08T12:11:45;6.33;;;3.90;;
27847;SDS011;15212;48.830;8.730;2023-05-08T12:14:16;5.72;;;3.80;;
27847;SDS011;15212;48.830;8.730;2023-05-08T12:16:44;4.83;;;3.70;;
27847;SDS011;15212;48.830;8.730;2023-05-08T12:19:12;6.60;;;4.62;;
27847;SDS011;15212;48.830;8.730;2023-05-08T12:21:47;6.08;;;4.33;;
27847;SDS011;15212;48.830;8.730;2023-05-08T12:24:16;4.12;;;3.20;;
27847;SDS011;15212;48.830;8.730;2023-05-08T12:26:46;3.95;;;3.17;;
27847;SDS011;15212;48.830;8.730;2023-05-08T12:29:17;3.75;;;2.98;;
27847;SDS011;15212;48.830;8.730;2023-05-08T12:31:46;4.40;;;3.40;;
27847;SDS011;15212;48.830;8.730;2023-05-08T12:34:15;4.10;;;3.50;;
27847;SDS011;15212;48.830;8.730;2023-05-08T12:36:43;7.17;;;3.75;;
27847;SDS011;15212;48.830;8.730;2023-05-08T12:39:12;4.58;;;3.45;;
27847;SDS011;15212;48.830;8.730;2023-05-08T12:41:48;4.12;;;3.25;;
27847;SDS011;15212;48.830;8.730;2023-05-08T12:46:49;7.72;;;3.95;;
27847;SDS011;15212;48.830;8.730;2023-05-08T12:49:25;5.65;;;3.72;;
27847;SDS011;15212;48.830;8.730;2023-05-08T12:52:01;4.15;;;3.50;;
27847;SDS011;15212;48.830;8.730;2023-05-08T12:54:35;5.65;;;3.80;;
27847;SDS011;15212;48.830;8.730;2023-05-08T12:57:15;7.03;;;4.20;;
27847;SDS011;15212;48.830;8.730;2023-05-08T12:59:46;6.78;;;3.85;;
27847;SDS011;15212;48.830;8.730;2023-05-08T13:02:16;4.28;;;3.52;;
27847;SDS011;15212;48.830;8.730;2023-05-08T13:04:52;5.70;;;3.83;;
27847;SDS011;15212;48.830;8.730;2023-05-08T13:07:21;5.05;;;3.90;;
27847;SDS011;15212;48.830;8.730;2023-05-08T13:09:56;5.58;;;4.10;;
27847;SDS011;15212;48.830;8.730;2023-05-08T13:12:29;5.83;;;4.25;;
27847;SDS011;15212;48.830;8.730;2023-05-08T13:14:58;7.47;;;5.00;;
27847;SDS011;15212;48.830;8.730;2023-05-08T13:17:28;5.70;;;4.67;;
27847;SDS011;15212;48.830;8.730;2023-05-08T13:19:56;8.93;;;4.80;;
27847;SDS011;15212;48.830;8.730;2023-05-08T13:22:25;8.28;;;6.35;;
27847;SDS011;15212;48.830;8.730;2023-05-08T13:24:54;10.45;;;7.58;;
27847;SDS011;15212;48.830;8.730;2023-05-08T13:27:22;12.40;;;9.50;;
27847;SDS011;15212;48.830;8.730;2023-05-08T13:29:51;13.25;;;9.30;;
27847;SDS011;15212;48.830;8.730;2023-05-08T13:32:19;16.17;;;10.20;;
27847;SDS011;15212;48.830;8.730;2023-05-08T13:34:48;13.70;;;9.55;;
27847;SDS011;15212;48.830;8.730;2023-05-08T13:37:16;15.58;;;10.63;;
27847;SDS011;15212;48.830;8.730;2023-05-08T13:39:45;16.07;;;11.12;;
27847;SDS011;15212;48.830;8.730;2023-05-08T13:42:13;18.30;;;12.78;;
27847;SDS011;15212;48.830;8.730;2023-05-08T13:44:41;18.80;;;12.30;;
27847;SDS011;15212;48.830;8.730;2023-05-08T13:47:10;19.80;;;12.25;;
27847;SDS011;15212;48.830;8.730;2023-05-08T13:49:38;23.77;;;14.28;;
27847;SDS011;15212;48.830;8.730;2023-05-08T13:52:06;23.60;;;15.58;;
27847;SDS011;15212;48.830;8.730;2023-05-08T13:54:35;25.95;;;16.97;;
27847;SDS011;15212;48.830;8.730;2023-05-08T13:57:03;23.67;;;15.43;;
27847;SDS011;15212;48.830;8.730;2023-05-08T13:59:33;26.65;;;17.07;;
27847;SDS011;15212;48.830;8.730;2023-05-08T14:02:02;26.93;;;18.70;;
27847;SDS011;15212;48.830;8.730;2023-05-08T14:04:30;29.98;;;18.98;;
27847;SDS011;15212;48.830;8.730;2023-05-08T14:06:58;26.68;;;18.23;;
27847;SDS011;15212;48.830;8.730;2023-05-08T14:09:27;26.80;;;18.32;;
27847;SDS011;15212;48.830;8.730;2023-05-08T14:11:55;28.75;;;18.95;;
27847;SDS011;15212;48.830;8.730;2023-05-08T14:14:24;28.65;;;19.25;;
27847;SDS011;15212;48.830;8.730;2023-05-08T14:16:52;25.57;;;18.25;;
27847;SDS011;15212;48.830;8.730;2023-05-08T14:19:20;31.97;;;19.42;;
27847;SDS011;15212;48.830;8.730;2023-05-08T14:21:49;33.10;;;20.55;;
27847;SDS011;15212;48.830;8.730;2023-05-08T14:24:17;29.30;;;18.92;;
27847;SDS011;15212;48.830;8.730;2023-05-08T14:26:45;31.48;;;20.35;;
27847;SDS011;15212;48.830;8.730;2023-05-08T14:29:14;30.15;;;20.57;;
27847;SDS011;15212;48.830;8.730;2023-05-08T14:31:43;31.37;;;20.15;;
27847;SDS011;15212;48.830;8.730;2023-05-08T14:34:12;39.05;;;24.45;;
27847;SDS011;15212;48.830;8.730;2023-05-08T14:36:40;41.75;;;25.05;;
27847;SDS011;15212;48.830;8.730;2023-05-08T14:39:09;31.00;;;20.25;;
27847;SDS011;15212;48.830;8.730;2023-05-08T14:41:37;27.55;;;18.20;;
27847;SDS011;15212;48.830;8.730;2023-05-08T14:44:05;25.77;;;17.90;;
27847;SDS011;15212;48.830;8.730;2023-05-08T14:46:34;27.48;;;18.45;;
27847;SDS011;15212;48.830;8.730;2023-05-08T14:49:02;29.12;;;19.45;;
27847;SDS011;15212;48.830;8.730;2023-05-08T14:51:31;30.65;;;20.68;;
27847;SDS011;15212;48.830;8.730;2023-05-08T14:53:59;32.83;;;21.77;;
27847;SDS011;15212;48.830;8.730;2023-05-08T14:56:28;34.35;;;21.60;;
27847;SDS011;15212;48.830;8.730;2023-05-08T14:58:56;33.40;;;21.20;;
27847;SDS011;15212;48.830;8.730;2023-05-08T15:01:24;33.65;;;22.30;;
27847;SDS011;15212;48.830;8.730;2023-05-08T15:03:53;36.33;;;22.93;;
27847;SDS011;15212;48.830;8.730;2023-05-08T15:06:22;33.42;;;21.45;;
27847;SDS011;15212;48.830;8.730;2023-05-08T15:08:52;33.65;;;23.62;;
27847;SDS011;15212;48.830;8.730;2023-05-08T15:11:21;38.25;;;24.85;;
27847;SDS011;15212;48.830;8.730;2023-05-08T15:13:49;35.33;;;23.10;;
27847;SDS011;15212;48.830;8.730;2023-05-08T15:16:18;34.25;;;23.73;;
27847;SDS011;15212;48.830;8.730;2023-05-08T15:18:46;39.33;;;25.37;;
27847;SDS011;15212;48.830;8.730;2023-05-08T15:21:15;37.30;;;23.75;;
27847;SDS011;15212;48.830;8.730;2023-05-08T15:23:45;36.28;;;23.52;;
27847;SDS011;15212;48.830;8.730;2023-05-08T15:26:13;34.75;;;22.27;;